Time;durP1;ratioP1;P1;durP2;ratioP2;P2;SDS_P1;SDS_P2;PMS_P1;PMS_P2;Temp;Humidity;BMP_temperature;BMP_pressure;BME280_temperature;BME280_humidity;BME280_pressure;Samples;Min_cycle;Max_cycle;Signal;HPM_P1;HPM_P2
2023/07/25 00:00:59;;;;;;;2.03;1.93;;;;;;;;;;4969075;28;20446;-72
2023/07/25 00:03:25;;;;;;;2.67;2.37;;;;;;;;;;4971240;28;20465;-73
2023/07/25 00:05:51;;;;;;;2.93;1.90;;;;;;;;;;4969927;28;20990;-73
2023/07/25 00:08:17;;;;;;;2.63;2.37;;;;;;;;;;4970592;28;20434;-72
2023/07/25 00:10:43;;;;;;;12.47;1.80;;;;;;;;;;4969671;28;20631;-72
2023/07/25 00:13:09;;;;;;;1.63;1.63;;;;;;;;;;4970265;28;20481;-72
2023/07/25 00:15:35;;;;;;;1.40;1.40;;;;;;;;;;4969565;28;20438;-72
2023/07/25 00:18:01;;;;;;;1.40;1.40;;;;;;;;;;4972126;28;20989;-73
2023/07/25 00:20:27;;;;;;;3.23;2.23;;;;;;;;;;4969236;28;20977;-73
2023/07/25 00:22:53;;;;;;;2.27;2.17;;;;;;;;;;4969618;28;20446;-72
2023/07/25 00:25:19;;;;;;;1.77;1.67;;;;;;;;;;4970294;28;20456;-72
2023/07/25 00:27:45;;;;;;;1.50;1.50;;;;;;;;;;4970699;28;20437;-72
2023/07/25 00:30:11;;;;;;;1.50;1.50;;;;;;;;;;4970161;28;20438;-73
2023/07/25 00:32:37;;;;;;;2.80;2.20;;;;;;;;;;4967291;28;20461;-72
2023/07/25 00:35:03;;;;;;;2.00;2.00;;;;;;;;;;4970874;28;20537;-72
2023/07/25 00:37:29;;;;;;;2.57;2.47;;;;;;;;;;4970671;28;20542;-72
2023/07/25 00:39:55;;;;;;;2.73;2.53;;;;;;;;;;4969669;28;20929;-73
2023/07/25 00:42:22;;;;;;;1.80;1.80;;;;;;;;;;4969334;28;20469;-72
2023/07/25 00:44:48;;;;;;;1.57;1.53;;;;;;;;;;4970590;28;20465;-72
2023/07/25 00:47:14;;;;;;;1.40;1.40;;;;;;;;;;4970140;28;20438;-73
2023/07/25 00:49:42;;;;;;;1.23;1.23;;;;;;;;;;4970421;28;20856;-72
2023/07/25 00:52:08;;;;;;;1.77;1.67;;;;;;;;;;4969521;28;20503;-72
2023/07/25 00:54:35;;;;;;;1.50;1.50;;;;;;;;;;4969979;28;20555;-72
2023/07/25 00:57:00;;;;;;;2.33;1.17;;;;;;;;;;4970231;28;20465;-73
2023/07/25 00:59:26;;;;;;;1.30;1.30;;;;;;;;;;4967529;28;20481;-72
2023/07/25 01:01:53;;;;;;;1.20;1.20;;;;;;;;;;4969024;28;20952;-72
2023/07/25 01:04:19;;;;;;;1.40;1.30;;;;;;;;;;4968968;28;20442;-73
2023/07/25 01:06:45;;;;;;;1.30;1.20;;;;;;;;;;4969394;28;20509;-72
2023/07/25 01:09:11;;;;;;;3.03;1.87;;;;;;;;;;4970116;28;20452;-73
2023/07/25 01:11:37;;;;;;;2.03;2.03;;;;;;;;;;4969399;28;20458;-72
2023/07/25 01:14:03;;;;;;;3.13;1.83;;;;;;;;;;4967747;28;20485;-73
2023/07/25 01:16:29;;;;;;;2.40;2.20;;;;;;;;;;4969839;28;20441;-72
2023/07/25 01:18:55;;;;;;;10.97;1.57;;;;;;;;;;4969209;28;20426;-73
2023/07/25 01:21:21;;;;;;;1.80;1.47;;;;;;;;;;4969237;28;20979;-72
2023/07/25 01:23:47;;;;;;;2.00;1.40;;;;;;;;;;4968417;28;20465;-72
2023/07/25 01:26:13;;;;;;;6.10;1.40;;;;;;;;;;4969738;28;21084;-73
2023/07/25 01:28:39;;;;;;;2.40;1.70;;;;;;;;;;4967965;28;20446;-73
2023/07/25 01:31:05;;;;;;;7.27;2.07;;;;;;;;;;4970134;28;20916;-73
2023/07/25 01:33:31;;;;;;;3.07;1.70;;;;;;;;;;4967594;28;20493;-72
2023/07/25 01:35:57;;;;;;;1.80;1.80;;;;;;;;;;4969418;28;20548;-72
2023/07/25 01:38:23;;;;;;;9.27;1.83;;;;;;;;;;4969615;28;20422;-73
2023/07/25 01:40:49;;;;;;;7.83;1.53;;;;;;;;;;4967106;28;20809;-73
2023/07/25 01:43:15;;;;;;;2.13;2.03;;;;;;;;;;4969000;28;20450;-72
2023/07/25 01:45:41;;;;;;;1.80;1.80;;;;;;;;;;4968148;28;20536;-72
2023/07/25 01:48:07;;;;;;;1.80;1.80;;;;;;;;;;4969482;28;20990;-73
2023/07/25 01:50:33;;;;;;;2.00;1.90;;;;;;;;;;4965988;28;21048;-72
2023/07/25 01:52:59;;;;;;;2.23;1.80;;;;;;;;;;4968863;28;20501;-72
2023/07/25 01:55:25;;;;;;;2.47;1.70;;;;;;;;;;4969106;28;20434;-72
2023/07/25 01:57:51;;;;;;;1.70;1.70;;;;;;;;;;4968275;28;20979;-72
2023/07/25 02:00:17;;;;;;;7.53;2.37;;;;;;;;;;4967487;28;20426;-72
2023/07/25 02:02:43;;;;;;;2.00;1.50;;;;;;;;;;4967735;28;20460;-72
2023/07/25 02:05:09;;;;;;;1.70;1.70;;;;;;;;;;4967382;28;20446;-73
2023/07/25 02:07:35;;;;;;;1.77;1.70;;;;;;;;;;4969355;28;20429;-73
2023/07/25 02:10:00;;;;;;;3.60;2.40;;;;;;;;;;4967709;28;20414;-73
2023/07/25 02:12:30;;;;;;;7.23;2.00;;;;;;;;;;4969465;28;21019;-72
2023/07/25 02:14:56;;;;;;;3.50;1.97;;;;;;;;;;4968078;28;20454;-73
2023/07/25 02:17:22;;;;;;;8.73;2.03;;;;;;;;;;4968936;28;20496;-73
2023/07/25 02:19:48;;;;;;;4.73;2.77;;;;;;;;;;4968493;28;20507;-72
2023/07/25 02:22:14;;;;;;;2.73;1.73;;;;;;;;;;4968713;28;20433;-73
2023/07/25 02:24:40;;;;;;;1.80;1.60;;;;;;;;;;4968237;28;20480;-73
2023/07/25 02:27:06;;;;;;;4.57;1.70;;;;;;;;;;4968993;28;20509;-73
2023/07/25 02:29:32;;;;;;;2.40;1.63;;;;;;;;;;4967622;28;20798;-72
2023/07/25 02:31:57;;;;;;;3.10;2.27;;;;;;;;;;4967886;28;20442;-72
2023/07/25 02:34:23;;;;;;;1.87;1.77;;;;;;;;;;4968023;28;20486;-73
2023/07/25 02:36:49;;;;;;;9.13;2.10;;;;;;;;;;4968260;28;20504;-73
2023/07/25 02:39:15;;;;;;;2.20;2.00;;;;;;;;;;4967476;28;20445;-73
2023/07/25 02:41:41;;;;;;;1.87;1.87;;;;;;;;;;4966918;28;20450;-72
2023/07/25 02:44:07;;;;;;;1.67;1.30;;;;;;;;;;4969288;28;20441;-72
2023/07/25 02:46:33;;;;;;;1.57;1.57;;;;;;;;;;4968138;28;20483;-73
2023/07/25 02:48:59;;;;;;;3.47;2.03;;;;;;;;;;4967589;28;21088;-73
2023/07/25 02:51:25;;;;;;;3.33;1.80;;;;;;;;;;4968195;28;20474;-73
2023/07/25 02:53:51;;;;;;;2.47;2.20;;;;;;;;;;4968888;28;20478;-72
2023/07/25 02:56:19;;;;;;;3.47;1.30;;;;;;;;;;4966090;28;20438;-72
2023/07/25 02:58:44;;;;;;;5.30;1.60;;;;;;;;;;4967306;28;20476;-73
2023/07/25 03:01:10;;;;;;;1.83;1.73;;;;;;;;;;4966956;28;20445;-72
2023/07/25 03:03:36;;;;;;;2.23;2.10;;;;;;;;;;4968092;28;20532;-73
2023/07/25 03:06:02;;;;;;;3.03;1.67;;;;;;;;;;4969283;28;20940;-72
2023/07/25 03:08:28;;;;;;;1.90;1.70;;;;;;;;;;4967913;28;20795;-73
2023/07/25 03:10:54;;;;;;;3.60;2.17;;;;;;;;;;4968342;28;20437;-73
2023/07/25 03:13:20;;;;;;;2.10;1.73;;;;;;;;;;4967229;28;20979;-73
2023/07/25 03:15:46;;;;;;;3.63;1.70;;;;;;;;;;4969362;28;20426;-73
2023/07/25 03:18:12;;;;;;;4.13;1.80;;;;;;;;;;4966535;28;20817;-73
2023/07/25 03:20:38;;;;;;;5.47;2.30;;;;;;;;;;4970602;28;20531;-72
2023/07/25 03:23:04;;;;;;;1.60;1.60;;;;;;;;;;4967674;28;20930;-73
2023/07/25 03:25:30;;;;;;;1.90;1.80;;;;;;;;;;4968007;28;20495;-73
2023/07/25 03:27:56;;;;;;;2.30;2.20;;;;;;;;;;4967587;28;20438;-73
2023/07/25 03:30:22;;;;;;;2.50;2.50;;;;;;;;;;4966905;28;21021;-72
2023/07/25 03:32:48;;;;;;;2.00;1.90;;;;;;;;;;4967829;28;20814;-72
2023/07/25 03:35:14;;;;;;;1.80;1.30;;;;;;;;;;4966502;28;20462;-73
2023/07/25 03:37:40;;;;;;;2.80;2.70;;;;;;;;;;4967836;28;20440;-72
2023/07/25 03:40:07;;;;;;;2.40;2.20;;;;;;;;;;4968202;28;20418;-73
2023/07/25 03:42:33;;;;;;;8.23;2.17;;;;;;;;;;4966795;28;20445;-73
2023/07/25 03:44:59;;;;;;;2.50;1.97;;;;;;;;;;4966903;28;20454;-72
2023/07/25 03:47:24;;;;;;;1.90;1.90;;;;;;;;;;4967085;28;20422;-73
2023/07/25 03:49:51;;;;;;;2.43;2.17;;;;;;;;;;4967183;28;20450;-73
2023/07/25 03:52:17;;;;;;;2.00;1.90;;;;;;;;;;4966668;28;20572;-72
2023/07/25 03:54:43;;;;;;;2.70;2.30;;;;;;;;;;4966591;28;20589;-73
2023/07/25 03:57:09;;;;;;;1.93;1.93;;;;;;;;;;4968042;28;20513;-73
2023/07/25 03:59:35;;;;;;;8.33;2.50;;;;;;;;;;4967527;28;20426;-72
2023/07/25 04:02:01;;;;;;;6.93;3.67;;;;;;;;;;4966974;28;20933;-73
2023/07/25 04:04:27;;;;;;;2.53;2.43;;;;;;;;;;4967296;28;20532;-73
2023/07/25 04:06:53;;;;;;;2.17;2.07;;;;;;;;;;4966397;28;20454;-73
2023/07/25 04:09:19;;;;;;;15.27;2.47;;;;;;;;;;4968949;28;20446;-73
2023/07/25 04:11:45;;;;;;;3.77;2.23;;;;;;;;;;4970291;28;20932;-72
2023/07/25 04:14:11;;;;;;;2.07;2.07;;;;;;;;;;4969804;28;20978;-73
2023/07/25 04:16:37;;;;;;;2.50;2.30;;;;;;;;;;4970986;28;20794;-73
2023/07/25 04:19:03;;;;;;;2.53;2.30;;;;;;;;;;4967981;28;20457;-73
2023/07/25 04:21:29;;;;;;;4.40;4.00;;;;;;;;;;4970621;28;20487;-73
2023/07/25 04:23:55;;;;;;;5.43;2.10;;;;;;;;;;4971055;28;20426;-73
2023/07/25 04:26:21;;;;;;;3.00;2.67;;;;;;;;;;4971094;28;20414;-72
2023/07/25 04:28:48;;;;;;;2.07;2.07;;;;;;;;;;4969148;28;20854;-73
2023/07/25 04:31:15;;;;;;;2.60;2.40;;;;;;;;;;4969798;28;20436;-73
2023/07/25 04:33:41;;;;;;;2.50;2.30;;;;;;;;;;4968574;28;20490;-73
2023/07/25 04:36:06;;;;;;;1.90;1.90;;;;;;;;;;4971405;28;20418;-73
2023/07/25 04:38:32;;;;;;;4.20;2.20;;;;;;;;;;4970363;28;20438;-73
2023/07/25 04:40:58;;;;;;;6.83;2.57;;;;;;;;;;4970063;28;20476;-72
2023/07/25 04:43:24;;;;;;;5.80;2.10;;;;;;;;;;4970486;28;20434;-72
2023/07/25 04:45:50;;;;;;;2.20;1.63;;;;;;;;;;4969632;28;20452;-72
2023/07/25 04:48:16;;;;;;;2.37;2.37;;;;;;;;;;4964059;28;20557;-72
2023/07/25 04:50:42;;;;;;;2.70;2.40;;;;;;;;;;4969324;28;20457;-73
2023/07/25 04:53:08;;;;;;;3.40;2.33;;;;;;;;;;4968594;28;20480;-72
2023/07/25 04:55:34;;;;;;;4.70;2.10;;;;;;;;;;4969855;28;20438;-72
2023/07/25 04:58:02;;;;;;;2.30;2.20;;;;;;;;;;4968204;28;20421;-72
2023/07/25 05:00:28;;;;;;;2.23;2.23;;;;;;;;;;4967651;28;20553;-72
2023/07/25 05:02:54;;;;;;;2.43;2.23;;;;;;;;;;4968315;28;20552;-72
2023/07/25 05:05:20;;;;;;;5.50;2.50;;;;;;;;;;4959821;28;20453;-72
2023/07/25 05:07:46;;;;;;;2.63;2.63;;;;;;;;;;4960890;28;20441;-73
2023/07/25 05:10:12;;;;;;;2.90;2.90;;;;;;;;;;4970209;28;20464;-73
2023/07/25 05:12:38;;;;;;;3.53;2.40;;;;;;;;;;4977221;28;20446;-72
2023/07/25 05:15:04;;;;;;;2.13;2.03;;;;;;;;;;4962812;28;20489;-72
2023/07/25 05:17:30;;;;;;;4.70;2.33;;;;;;;;;;4964421;28;20442;-72
2023/07/25 05:19:56;;;;;;;2.43;2.33;;;;;;;;;;4972666;28;20457;-72
2023/07/25 05:22:22;;;;;;;2.63;2.53;;;;;;;;;;4970559;28;20462;-73
2023/07/25 05:24:48;;;;;;;2.43;2.40;;;;;;;;;;4971595;28;20437;-73
2023/07/25 05:27:15;;;;;;;9.33;2.27;;;;;;;;;;4969027;28;20519;-73
2023/07/25 05:29:41;;;;;;;11.40;3.30;;;;;;;;;;4968425;28;20446;-73
2023/07/25 05:32:07;;;;;;;3.63;2.40;;;;;;;;;;4965641;28;20431;-72
2023/07/25 05:34:33;;;;;;;4.57;2.10;;;;;;;;;;4970631;28;20485;-73
2023/07/25 05:37:00;;;;;;;1.83;1.60;;;;;;;;;;4967247;28;20952;-72
2023/07/25 05:39:26;;;;;;;2.50;2.30;;;;;;;;;;4968497;28;20518;-72
2023/07/25 05:41:52;;;;;;;2.77;1.90;;;;;;;;;;4969025;28;20513;-72
2023/07/25 05:44:17;;;;;;;7.43;2.03;;;;;;;;;;4967468;28;20945;-73
2023/07/25 05:46:43;;;;;;;4.90;2.13;;;;;;;;;;4969147;28;20559;-72
2023/07/25 05:49:09;;;;;;;14.90;2.00;;;;;;;;;;4968475;28;20492;-72
2023/07/25 05:51:35;;;;;;;3.70;1.60;;;;;;;;;;4968150;28;20476;-72
2023/07/25 05:54:01;;;;;;;6.00;2.00;;;;;;;;;;4968724;28;20477;-73
2023/07/25 05:56:27;;;;;;;6.17;2.10;;;;;;;;;;4968392;28;20531;-72
2023/07/25 05:58:54;;;;;;;2.00;1.90;;;;;;;;;;4968279;28;20800;-73
2023/07/25 06:01:20;;;;;;;2.13;1.37;;;;;;;;;;4968404;28;20434;-72
2023/07/25 06:03:46;;;;;;;3.73;2.20;;;;;;;;;;4968988;28;20437;-68
2023/07/25 06:06:12;;;;;;;2.13;1.87;;;;;;;;;;4967182;28;20441;-67
2023/07/25 06:08:38;;;;;;;4.43;1.93;;;;;;;;;;4969047;28;20437;-67
2023/07/25 06:11:04;;;;;;;8.93;2.00;;;;;;;;;;4968425;28;20428;-67
2023/07/25 06:13:33;;;;;;;3.37;1.63;;;;;;;;;;4968641;28;20494;-67
2023/07/25 06:15:59;;;;;;;2.00;1.50;;;;;;;;;;4969105;28;20481;-68
2023/07/25 06:18:25;;;;;;;3.10;2.27;;;;;;;;;;4968777;28;20450;-68
2023/07/25 06:20:51;;;;;;;1.47;1.33;;;;;;;;;;4968639;28;20426;-68
2023/07/25 06:23:17;;;;;;;1.23;1.23;;;;;;;;;;4968285;28;20866;-68
2023/07/25 06:25:43;;;;;;;3.10;1.70;;;;;;;;;;4968886;28;20430;-68
2023/07/25 06:28:11;;;;;;;1.73;1.63;;;;;;;;;;4967784;28;20426;-68
2023/07/25 06:30:37;;;;;;;7.47;2.03;;;;;;;;;;4967592;28;20942;-68
2023/07/25 06:33:03;;;;;;;1.63;1.53;;;;;;;;;;4967783;28;20473;-68
2023/07/25 06:35:29;;;;;;;4.83;1.57;;;;;;;;;;4968860;28;20491;-67
2023/07/25 06:37:55;;;;;;;1.20;1.20;;;;;;;;;;4968730;28;20425;-68
2023/07/25 06:40:21;;;;;;;2.27;1.43;;;;;;;;;;4968584;28;20442;-68
2023/07/25 06:42:47;;;;;;;6.50;1.33;;;;;;;;;;4967435;28;20423;-67
2023/07/25 06:45:13;;;;;;;1.43;1.30;;;;;;;;;;4968909;28;20430;-67
2023/07/25 06:47:39;;;;;;;1.37;1.37;;;;;;;;;;4968961;28;20475;-67
2023/07/25 06:50:05;;;;;;;2.70;1.70;;;;;;;;;;4969376;28;20438;-67
2023/07/25 06:52:31;;;;;;;2.10;2.00;;;;;;;;;;4967164;28;20544;-68
2023/07/25 06:54:57;;;;;;;7.30;1.70;;;;;;;;;;4967123;28;20580;-67
2023/07/25 06:57:23;;;;;;;1.80;1.80;;;;;;;;;;4966810;28;21637;-68
2023/07/25 06:59:49;;;;;;;1.60;1.50;;;;;;;;;;4968796;28;20442;-67
2023/07/25 07:02:15;;;;;;;2.00;1.90;;;;;;;;;;4966422;28;20848;-68
2023/07/25 07:04:41;;;;;;;2.10;2.00;;;;;;;;;;4968831;28;20711;-67
2023/07/25 07:07:07;;;;;;;2.30;2.20;;;;;;;;;;4965469;28;20513;-67
2023/07/25 07:09:33;;;;;;;4.00;1.53;;;;;;;;;;4968175;28;20475;-68
2023/07/25 07:12:00;;;;;;;3.03;1.67;;;;;;;;;;4967823;28;20922;-66
2023/07/25 07:14:26;;;;;;;2.03;1.93;;;;;;;;;;4966334;28;20485;-67
2023/07/25 07:16:51;;;;;;;2.10;1.60;;;;;;;;;;4968527;28;20430;-67
2023/07/25 07:19:17;;;;;;;2.53;1.97;;;;;;;;;;4968010;28;20952;-68
2023/07/25 07:21:43;;;;;;;1.10;1.10;;;;;;;;;;4968048;28;20418;-68
2023/07/25 07:24:09;;;;;;;1.70;1.60;;;;;;;;;;4969326;28;20933;-68
2023/07/25 07:26:35;;;;;;;1.73;1.63;;;;;;;;;;4968853;28;20826;-69
2023/07/25 07:29:01;;;;;;;2.30;2.20;;;;;;;;;;4968012;28;20418;-67
2023/07/25 07:31:27;;;;;;;1.43;1.17;;;;;;;;;;4967544;28;20450;-67
2023/07/25 07:34:08;;;;;;;2.20;1.67;;;;;;;;;;4968401;28;20528;-67
2023/07/25 07:36:34;;;;;;;2.67;1.33;;;;;;;;;;4950680;28;20480;-68
2023/07/25 07:39:00;;;;;;;3.90;2.03;;;;;;;;;;4966248;28;21166;-68
2023/07/25 07:41:26;;;;;;;1.30;1.30;;;;;;;;;;4966992;28;20429;-70
2023/07/25 07:43:52;;;;;;;2.60;1.10;;;;;;;;;;4970510;28;20495;-69
2023/07/25 07:46:18;;;;;;;2.83;1.67;;;;;;;;;;4969892;28;20429;-69
2023/07/25 07:48:44;;;;;;;1.80;1.30;;;;;;;;;;4970093;28;20484;-73
2023/07/25 07:51:10;;;;;;;1.57;1.40;;;;;;;;;;4967398;28;20591;-73
2023/07/25 07:53:38;;;;;;;1.67;1.43;;;;;;;;;;4969347;28;20481;-72
2023/07/25 07:56:05;;;;;;;1.73;1.63;;;;;;;;;;4972733;28;21010;-72
2023/07/25 07:58:31;;;;;;;1.20;1.20;;;;;;;;;;4970453;28;20449;-72
2023/07/25 08:00:56;;;;;;;1.77;1.67;;;;;;;;;;4969922;28;20414;-71
2023/07/25 08:03:22;;;;;;;1.67;1.57;;;;;;;;;;4970759;28;20910;-76
2023/07/25 08:05:55;;;;;;;3.30;1.90;;;;;;;;;;4970731;28;20422;-75
2023/07/25 08:08:21;;;;;;;2.13;2.00;;;;;;;;;;4971303;28;20918;-81
2023/07/25 08:10:47;;;;;;;1.20;1.20;;;;;;;;;;4970209;28;20532;-82
2023/07/25 08:13:13;;;;;;;1.40;1.30;;;;;;;;;;4969771;28;21024;-80
2023/07/25 08:15:39;;;;;;;1.60;1.57;;;;;;;;;;4971737;28;20530;-80
2023/07/25 08:18:05;;;;;;;2.60;1.43;;;;;;;;;;4971258;28;20426;-70
2023/07/25 08:20:31;;;;;;;7.23;2.00;;;;;;;;;;4967769;28;21028;-77
2023/07/25 08:22:57;;;;;;;2.10;1.60;;;;;;;;;;4966483;28;20540;-74
2023/07/25 08:25:23;;;;;;;1.30;1.23;;;;;;;;;;4967753;28;20433;-73
2023/07/25 08:27:49;;;;;;;5.93;1.23;;;;;;;;;;4969115;28;20446;-72
2023/07/25 08:30:15;;;;;;;7.33;1.33;;;;;;;;;;4970664;28;20495;-73
2023/07/25 08:32:41;;;;;;;3.03;1.50;;;;;;;;;;4974257;28;20933;-73
2023/07/25 08:35:07;;;;;;;1.73;0.83;;;;;;;;;;4969356;28;20445;-73
2023/07/25 08:37:33;;;;;;;7.80;1.43;;;;;;;;;;4971426;28;20468;-73
2023/07/25 08:39:59;;;;;;;1.43;1.33;;;;;;;;;;4969504;28;20449;-75
2023/07/25 08:42:26;;;;;;;7.60;1.70;;;;;;;;;;4968722;28;20530;-72
2023/07/25 08:44:53;;;;;;;1.77;1.67;;;;;;;;;;4964967;28;20450;-72
2023/07/25 08:47:22;;;;;;;1.63;1.30;;;;;;;;;;4970192;28;20993;-72
2023/07/25 08:49:50;;;;;;;4.17;1.13;;;;;;;;;;4973222;28;20880;-71
2023/07/25 08:52:17;;;;;;;0.93;0.70;;;;;;;;;;4968241;28;20490;-72
2023/07/25 08:54:44;;;;;;;1.90;0.80;;;;;;;;;;4968587;28;20816;-71
2023/07/25 08:57:10;;;;;;;1.00;0.70;;;;;;;;;;4963326;28;20484;-72
2023/07/25 08:59:36;;;;;;;0.83;0.80;;;;;;;;;;4966013;28;20436;-72
2023/07/25 09:02:02;;;;;;;1.13;0.73;;;;;;;;;;4967018;28;20517;-72
2023/07/25 09:04:28;;;;;;;1.73;0.80;;;;;;;;;;4966748;28;21737;-72
2023/07/25 09:06:54;;;;;;;0.60;0.60;;;;;;;;;;4968710;28;20426;-72
2023/07/25 09:09:21;;;;;;;0.60;0.60;;;;;;;;;;4967944;28;20430;-72
2023/07/25 09:11:47;;;;;;;0.80;0.80;;;;;;;;;;4969059;28;20429;-71
2023/07/25 09:14:13;;;;;;;0.90;0.90;;;;;;;;;;4969196;28;20493;-72
2023/07/25 09:16:39;;;;;;;1.80;1.00;;;;;;;;;;4969986;28;20536;-72
2023/07/25 09:19:05;;;;;;;0.77;0.77;;;;;;;;;;4970804;28;20450;-72
2023/07/25 09:21:31;;;;;;;0.50;0.50;;;;;;;;;;4969729;28;20450;-72
2023/07/25 09:23:58;;;;;;;1.90;1.10;;;;;;;;;;4969645;28;20812;-71
2023/07/25 09:26:26;;;;;;;1.30;0.90;;;;;;;;;;4969940;28;20471;-72
2023/07/25 09:28:53;;;;;;;1.10;1.10;;;;;;;;;;4969237;28;20438;-72
2023/07/25 09:31:19;;;;;;;4.53;1.20;;;;;;;;;;4970275;28;20524;-72
2023/07/25 09:33:49;;;;;;;2.10;1.10;;;;;;;;;;4964859;28;20501;-72
2023/07/25 09:36:15;;;;;;;1.03;1.00;;;;;;;;;;4966847;28;20446;-72
2023/07/25 09:38:53;;;;;;;1.50;0.90;;;;;;;;;;4966896;28;20446;-72
2023/07/25 09:41:20;;;;;;;1.93;0.93;;;;;;;;;;4968592;28;20928;-71
2023/07/25 09:43:46;;;;;;;2.07;0.90;;;;;;;;;;4968507;28;20529;-69
2023/07/25 09:46:12;;;;;;;0.83;0.83;;;;;;;;;;4968043;28;20491;-72
2023/07/25 09:48:46;;;;;;;1.00;0.90;;;;;;;;;;4968952;28;20869;-71
2023/07/25 09:51:12;;;;;;;2.60;1.13;;;;;;;;;;4968679;28;20473;-71
2023/07/25 09:53:38;;;;;;;1.17;0.93;;;;;;;;;;4967953;28;21001;-71
2023/07/25 09:56:05;;;;;;;0.93;0.93;;;;;;;;;;4969319;28;20491;-71
2023/07/25 09:58:31;;;;;;;3.13;0.77;;;;;;;;;;4968852;28;20442;-71
2023/07/25 10:00:57;;;;;;;1.37;1.10;;;;;;;;;;4967292;28;20434;-72
2023/07/25 10:03:24;;;;;;;6.60;1.10;;;;;;;;;;4968308;28;20487;-72
2023/07/25 10:05:50;;;;;;;4.03;1.00;;;;;;;;;;4968337;28;20426;-72
2023/07/25 10:08:19;;;;;;;1.60;1.50;;;;;;;;;;4968453;28;20452;-72
2023/07/25 10:10:45;;;;;;;4.43;1.33;;;;;;;;;;4968177;28;20437;-72
2023/07/25 10:13:11;;;;;;;0.87;0.87;;;;;;;;;;4968174;28;20503;-71
2023/07/25 10:15:39;;;;;;;2.20;1.27;;;;;;;;;;4967958;28;20458;-72
2023/07/25 10:18:17;;;;;;;5.20;0.90;;;;;;;;;;4969364;28;20461;-72
2023/07/25 10:20:43;;;;;;;1.00;0.80;;;;;;;;;;4967712;28;20530;-71
2023/07/25 10:23:10;;;;;;;2.70;1.20;;;;;;;;;;4968920;28;20521;-71
2023/07/25 10:25:36;;;;;;;16.90;10.80;;;;;;;;;;4968094;28;20446;-71
2023/07/25 10:28:02;;;;;;;5.43;1.17;;;;;;;;;;4965664;28;20445;-72
2023/07/25 10:30:29;;;;;;;5.10;1.20;;;;;;;;;;4967866;28;20478;-71
2023/07/25 10:32:58;;;;;;;3.53;1.40;;;;;;;;;;4964401;28;20442;-72
2023/07/25 10:35:49;;;;;;;2.00;1.13;;;;;;;;;;4967784;28;20474;-72
2023/07/25 10:38:21;;;;;;;1.43;1.17;;;;;;;;;;4968306;28;20426;-71
2023/07/25 10:40:51;;;;;;;3.03;1.30;;;;;;;;;;4967701;28;20449;-71
2023/07/25 10:43:17;;;;;;;1.40;1.37;;;;;;;;;;4967777;28;20446;-73
2023/07/25 10:45:48;;;;;;;1.00;0.90;;;;;;;;;;4968042;28;20452;-72
2023/07/25 10:48:27;;;;;;;2.20;0.90;;;;;;;;;;4968201;28;20476;-72
2023/07/25 10:50:56;;;;;;;2.03;1.23;;;;;;;;;;4967244;28;20460;-72
2023/07/25 10:53:24;;;;;;;0.70;0.70;;;;;;;;;;4967313;28;20481;-71
2023/07/25 10:56:05;;;;;;;0.90;0.90;;;;;;;;;;4967401;28;20430;-72
2023/07/25 10:58:32;;;;;;;0.70;0.70;;;;;;;;;;4965583;28;20515;-72
2023/07/25 11:00:58;;;;;;;0.77;0.77;;;;;;;;;;4966977;28;21990;-72
2023/07/25 11:03:29;;;;;;;1.27;1.20;;;;;;;;;;4966124;28;20430;-71
2023/07/25 11:06:07;;;;;;;4.23;1.13;;;;;;;;;;4966013;28;20449;-72
2023/07/25 11:08:37;;;;;;;1.13;0.73;;;;;;;;;;4966218;28;20438;-72
2023/07/25 11:11:04;;;;;;;1.00;1.00;;;;;;;;;;4963825;28;20438;-72
2023/07/25 11:13:31;;;;;;;3.53;1.20;;;;;;;;;;4964241;28;20488;-72
2023/07/25 11:15:57;;;;;;;0.87;0.87;;;;;;;;;;4964390;28;20885;-72
2023/07/25 11:18:23;;;;;;;1.50;0.90;;;;;;;;;;4967177;28;20437;-72
2023/07/25 11:21:01;;;;;;;0.83;0.83;;;;;;;;;;4965365;28;20656;-72
2023/07/25 11:23:27;;;;;;;3.67;0.97;;;;;;;;;;4967566;28;20430;-72
2023/07/25 11:25:57;;;;;;;1.60;1.10;;;;;;;;;;4967269;28;20426;-72
2023/07/25 11:28:24;;;;;;;6.53;1.37;;;;;;;;;;4965674;28;21007;-72
2023/07/25 11:30:53;;;;;;;3.80;1.47;;;;;;;;;;4966960;28;20418;-72
2023/07/25 11:33:19;;;;;;;1.93;1.40;;;;;;;;;;4966536;28;20988;-72
2023/07/25 11:35:45;;;;;;;2.43;1.07;;;;;;;;;;4966623;28;20461;-72
2023/07/25 11:38:11;;;;;;;1.57;0.90;;;;;;;;;;4965949;28;20418;-72
2023/07/25 11:40:40;;;;;;;0.80;0.80;;;;;;;;;;4967069;28;20445;-72
2023/07/25 11:43:12;;;;;;;2.33;1.10;;;;;;;;;;4966745;28;20438;-72
2023/07/25 11:45:40;;;;;;;2.63;1.10;;;;;;;;;;4965848;28;20533;-71
2023/07/25 11:48:08;;;;;;;1.20;0.97;;;;;;;;;;4966506;28;20491;-72
2023/07/25 11:50:34;;;;;;;0.90;0.90;;;;;;;;;;4967055;28;20898;-72
2023/07/25 11:53:01;;;;;;;2.20;0.90;;;;;;;;;;4967075;28;20944;-72
2023/07/25 11:55:28;;;;;;;3.30;1.27;;;;;;;;;;4967367;28;20456;-72
2023/07/25 11:57:54;;;;;;;1.07;0.97;;;;;;;;;;4966762;28;20437;-72
2023/07/25 12:00:20;;;;;;;2.50;0.93;;;;;;;;;;4965644;28;20939;-72
2023/07/25 12:02:46;;;;;;;1.00;0.90;;;;;;;;;;4966886;28;20912;-72
2023/07/25 12:05:26;;;;;;;1.00;0.90;;;;;;;;;;4967036;28;20445;-72
2023/07/25 12:07:53;;;;;;;0.90;0.90;;;;;;;;;;4966392;28;20438;-72
2023/07/25 12:10:28;;;;;;;1.80;1.23;;;;;;;;;;4968185;28;20544;-72
2023/07/25 12:12:55;;;;;;;0.70;0.70;;;;;;;;;;4967102;28;20421;-72
2023/07/25 12:15:23;;;;;;;1.50;1.10;;;;;;;;;;4967274;28;20433;-72
2023/07/25 12:17:49;;;;;;;1.30;1.20;;;;;;;;;;4966601;28;20782;-72
2023/07/25 12:20:16;;;;;;;1.00;1.00;;;;;;;;;;4972821;28;20430;-72
2023/07/25 12:22:42;;;;;;;2.20;1.00;;;;;;;;;;4966571;28;20434;-72
2023/07/25 12:25:08;;;;;;;0.90;0.90;;;;;;;;;;4967659;28;20442;-72
2023/07/25 12:27:34;;;;;;;1.47;0.97;;;;;;;;;;4966811;28;20438;-72
2023/07/25 12:30:00;;;;;;;2.40;1.27;;;;;;;;;;4971815;28;20496;-72
2023/07/25 12:32:26;;;;;;;1.10;0.80;;;;;;;;;;4969721;28;21038;-72
2023/07/25 12:34:59;;;;;;;1.60;0.87;;;;;;;;;;4969253;28;20492;-72
2023/07/25 12:37:25;;;;;;;1.17;0.83;;;;;;;;;;4970095;28;20453;-72
2023/07/25 12:39:51;;;;;;;1.07;1.07;;;;;;;;;;4969281;28;20450;-72
2023/07/25 12:42:17;;;;;;;1.13;0.90;;;;;;;;;;4970070;28;20456;-72
2023/07/25 12:44:43;;;;;;;0.60;0.60;;;;;;;;;;4969880;28;20760;-72
2023/07/25 12:47:09;;;;;;;0.60;0.60;;;;;;;;;;4969728;28;20436;-72
2023/07/25 12:49:35;;;;;;;2.40;1.00;;;;;;;;;;4970655;28;20513;-72
2023/07/25 12:52:01;;;;;;;2.20;0.70;;;;;;;;;;4969820;28;21008;-72
2023/07/25 12:54:27;;;;;;;0.60;0.60;;;;;;;;;;4969700;28;20485;-72
2023/07/25 12:56:53;;;;;;;0.77;0.77;;;;;;;;;;4969271;28;21035;-72
2023/07/25 12:59:19;;;;;;;0.83;0.70;;;;;;;;;;4959345;28;20497;-72
2023/07/25 13:01:47;;;;;;;2.77;0.60;;;;;;;;;;4968809;28;20454;-72
2023/07/25 13:04:13;;;;;;;0.60;0.60;;;;;;;;;;4968945;28;20525;-72
2023/07/25 13:06:39;;;;;;;0.80;0.80;;;;;;;;;;4970050;28;20537;-71
2023/07/25 13:09:05;;;;;;;0.70;0.70;;;;;;;;;;4969844;28;20450;-72
2023/07/25 13:11:31;;;;;;;0.87;0.87;;;;;;;;;;4975590;28;20529;-72
2023/07/25 13:13:57;;;;;;;2.03;0.63;;;;;;;;;;4970280;28;20462;-71
2023/07/25 13:16:23;;;;;;;0.80;0.80;;;;;;;;;;4970413;28;20418;-72
2023/07/25 13:18:49;;;;;;;0.53;0.53;;;;;;;;;;4968960;28;20440;-72
2023/07/25 13:21:15;;;;;;;0.70;0.70;;;;;;;;;;4968538;28;20806;-72
2023/07/25 13:23:41;;;;;;;0.40;0.40;;;;;;;;;;4970217;28;20442;-72
2023/07/25 13:26:07;;;;;;;0.63;0.63;;;;;;;;;;4973240;28;20543;-72
2023/07/25 13:28:33;;;;;;;0.37;0.37;;;;;;;;;;4971099;28;20537;-72
2023/07/25 13:30:59;;;;;;;2.30;0.80;;;;;;;;;;4971002;28;20933;-72
2023/07/25 13:33:25;;;;;;;1.80;0.70;;;;;;;;;;4970968;28;20560;-72
2023/07/25 13:35:51;;;;;;;0.63;0.63;;;;;;;;;;4970140;28;20870;-72
2023/07/25 13:38:17;;;;;;;1.13;0.80;;;;;;;;;;4969502;28;20434;-72
2023/07/25 13:40:43;;;;;;;1.53;0.83;;;;;;;;;;4969903;28;20406;-72
2023/07/25 13:43:09;;;;;;;1.00;0.90;;;;;;;;;;4969794;28;20501;-72
2023/07/25 13:45:35;;;;;;;0.60;0.60;;;;;;;;;;4968785;28;20983;-72
2023/07/25 13:48:01;;;;;;;0.80;0.80;;;;;;;;;;4975126;28;20977;-72
2023/07/25 13:50:27;;;;;;;0.60;0.60;;;;;;;;;;4970591;28;20434;-71
2023/07/25 13:52:53;;;;;;;2.47;0.73;;;;;;;;;;4970288;28;20956;-71
2023/07/25 13:55:19;;;;;;;0.90;0.90;;;;;;;;;;4967997;28;20541;-71
2023/07/25 13:57:46;;;;;;;2.13;1.00;;;;;;;;;;4967739;28;20491;-70
2023/07/25 14:00:13;;;;;;;1.10;1.10;;;;;;;;;;4967903;28;20913;-71
2023/07/25 14:02:40;;;;;;;4.73;1.33;;;;;;;;;;4973327;28;20827;-71
2023/07/25 14:05:06;;;;;;;4.40;2.10;;;;;;;;;;4968199;28;20438;-71
2023/07/25 14:07:32;;;;;;;3.03;1.13;;;;;;;;;;4968166;28;20514;-71
2023/07/25 14:09:58;;;;;;;1.77;1.67;;;;;;;;;;4969551;28;20521;-71
2023/07/25 14:12:24;;;;;;;1.03;0.90;;;;;;;;;;4961053;28;20443;-71
2023/07/25 14:14:50;;;;;;;0.93;0.90;;;;;;;;;;4965542;28;20538;-70
2023/07/25 14:17:16;;;;;;;2.10;0.90;;;;;;;;;;4966608;28;20438;-70
2023/07/25 14:19:43;;;;;;;6.20;1.13;;;;;;;;;;4970072;28;20465;-71
2023/07/25 14:22:09;;;;;;;2.30;2.20;;;;;;;;;;4967681;28;20437;-70
2023/07/25 14:24:35;;;;;;;1.50;0.70;;;;;;;;;;4973743;28;20445;-71
2023/07/25 14:27:01;;;;;;;2.70;1.20;;;;;;;;;;4967708;28;20438;-70
2023/07/25 14:29:27;;;;;;;1.27;1.23;;;;;;;;;;4967846;28;20421;-70
2023/07/25 14:31:53;;;;;;;0.80;0.80;;;;;;;;;;4967396;28;20414;-70
2023/07/25 14:34:19;;;;;;;0.97;0.97;;;;;;;;;;4967265;28;20513;-71
2023/07/25 14:36:45;;;;;;;0.73;0.73;;;;;;;;;;4967840;28;20422;-70
2023/07/25 14:39:11;;;;;;;1.07;0.90;;;;;;;;;;4967629;28;20422;-70